createdAt,value
2023-08-27T00:01:37.510Z,100.00
2023-08-27T00:04:10.778Z,100.00
2023-08-27T00:06:44.098Z,100.00
2023-08-27T00:09:17.186Z,100.00
2023-08-27T00:11:53.829Z,100.00
2023-08-27T00:14:26.894Z,100.00
2023-08-27T00:17:02.096Z,100.00
2023-08-27T00:19:37.614Z,100.00
2023-08-27T00:22:11.146Z,100.00
2023-08-27T00:24:44.156Z,100.00
2023-08-27T00:27:17.282Z,100.00
2023-08-27T00:29:51.268Z,100.00
2023-08-27T00:32:31.823Z,100.00
2023-08-27T00:35:05.484Z,100.00
2023-08-27T00:37:38.692Z,100.00
2023-08-27T00:40:13.528Z,100.00
2023-08-27T00:42:46.597Z,100.00
2023-08-27T00:45:19.826Z,100.00
2023-08-27T00:47:53.695Z,100.00
2023-08-27T00:50:32.162Z,100.00
2023-08-27T00:53:06.038Z,100.00
2023-08-27T00:55:40.274Z,100.00
2023-08-27T00:58:13.348Z,100.00
2023-08-27T01:00:46.633Z,100.00
2023-08-27T01:03:20.032Z,100.00
2023-08-27T01:05:53.434Z,100.00
2023-08-27T01:08:32.835Z,100.00
2023-08-27T01:11:13.484Z,100.00
2023-08-27T01:13:55.433Z,100.00
2023-08-27T01:16:31.222Z,100.00
2023-08-27T01:19:09.313Z,100.00
2023-08-27T01:21:42.707Z,100.00
2023-08-27T01:24:15.834Z,100.00
2023-08-27T01:26:50.175Z,100.00
2023-08-27T01:29:27.077Z,100.00
2023-08-27T01:32:11.223Z,100.00
2023-08-27T01:34:46.004Z,100.00
2023-08-27T01:37:19.031Z,100.00
2023-08-27T01:40:07.293Z,100.00
2023-08-27T01:42:43.651Z,100.00
2023-08-27T01:45:18.954Z,100.00
2023-08-27T01:47:52.065Z,100.00
2023-08-27T01:50:25.186Z,100.00
2023-08-27T01:53:02.296Z,100.00
2023-08-27T01:55:41.911Z,100.00
2023-08-27T01:58:15.587Z,100.00
2023-08-27T02:00:48.741Z,100.00
2023-08-27T02:03:22.533Z,100.00
2023-08-27T02:05:55.382Z,100.00
2023-08-27T02:08:28.385Z,100.00
2023-08-27T02:11:07.192Z,100.00
2023-08-27T02:13:40.476Z,100.00
2023-08-27T02:16:13.597Z,100.00
2023-08-27T02:18:46.425Z,100.00
2023-08-27T02:21:20.993Z,100.00
2023-08-27T02:23:53.960Z,100.00
2023-08-27T02:26:27.043Z,100.00
2023-08-27T02:29:02.219Z,100.00
2023-08-27T02:31:38.336Z,100.00
2023-08-27T02:34:11.728Z,100.00
2023-08-27T02:36:44.828Z,100.00
2023-08-27T02:39:17.973Z,100.00
2023-08-27T02:41:52.425Z,100.00
2023-08-27T02:44:26.369Z,100.00
2023-08-27T02:47:01.410Z,100.00
2023-08-27T02:49:35.043Z,100.00
2023-08-27T02:52:08.830Z,100.00
2023-08-27T02:54:41.809Z,100.00
2023-08-27T02:57:14.847Z,100.00
2023-08-27T02:59:47.805Z,100.00
2023-08-27T03:02:20.744Z,100.00
2023-08-27T03:04:53.934Z,100.00
2023-08-27T03:07:26.920Z,100.00
2023-08-27T03:10:02.314Z,100.00
2023-08-27T03:12:35.688Z,100.00
2023-08-27T03:15:10.404Z,100.00
2023-08-27T03:17:46.106Z,100.00
2023-08-27T03:20:19.371Z,100.00
2023-08-27T03:22:52.890Z,100.00
2023-08-27T03:25:25.867Z,100.00
2023-08-27T03:27:58.910Z,100.00
2023-08-27T03:30:35.175Z,100.00
2023-08-27T03:33:09.510Z,100.00
2023-08-27T03:35:42.849Z,100.00
2023-08-27T03:38:16.639Z,100.00
2023-08-27T03:40:53.130Z,100.00
2023-08-27T03:43:26.201Z,100.00
2023-08-27T03:45:59.405Z,100.00
2023-08-27T03:48:33.643Z,100.00
2023-08-27T03:51:07.466Z,100.00
2023-08-27T03:53:41.155Z,100.00
2023-08-27T03:56:14.284Z,100.00
2023-08-27T03:58:47.393Z,100.00
2023-08-27T04:01:20.568Z,100.00
2023-08-27T04:03:54.872Z,100.00
2023-08-27T04:06:28.173Z,100.00
2023-08-27T04:09:03.645Z,100.00
2023-08-27T04:11:36.718Z,100.00
2023-08-27T04:14:09.913Z,100.00
2023-08-27T04:16:42.897Z,100.00
2023-08-27T04:19:16.260Z,100.00
2023-08-27T04:21:49.363Z,100.00
2023-08-27T04:24:24.046Z,100.00
2023-08-27T04:27:02.805Z,100.00
2023-08-27T04:29:36.397Z,100.00
2023-08-27T04:32:09.880Z,100.00
2023-08-27T04:34:44.714Z,100.00
2023-08-27T04:37:17.794Z,100.00
2023-08-27T04:39:52.176Z,100.00
2023-08-27T04:42:26.627Z,100.00
2023-08-27T04:45:02.457Z,100.00
2023-08-27T04:47:38.909Z,100.00
2023-08-27T04:50:13.205Z,100.00
2023-08-27T04:52:47.269Z,100.00
2023-08-27T04:55:20.648Z,100.00
2023-08-27T04:57:53.909Z,100.00
2023-08-27T05:00:27.003Z,100.00
2023-08-27T05:03:02.956Z,100.00
2023-08-27T05:05:36.717Z,100.00
2023-08-27T05:08:10.041Z,100.00
2023-08-27T05:10:45.944Z,100.00
2023-08-27T05:13:19.496Z,100.00
2023-08-27T05:15:52.985Z,100.00
2023-08-27T05:18:26.367Z,100.00
2023-08-27T05:21:05.746Z,100.00
2023-08-27T05:23:38.742Z,100.00
2023-08-27T05:26:11.936Z,100.00
2023-08-27T05:28:45.127Z,100.00
2023-08-27T05:31:18.338Z,100.00
2023-08-27T05:33:51.508Z,100.00
2023-08-27T05:36:24.936Z,100.00
2023-08-27T05:39:00.452Z,100.00
2023-08-27T05:41:36.631Z,100.00
2023-08-27T05:44:10.510Z,100.00
2023-08-27T05:46:43.816Z,100.00
2023-08-27T05:49:16.921Z,100.00
2023-08-27T05:51:51.448Z,100.00
2023-08-27T05:54:24.507Z,100.00
2023-08-27T05:56:58.410Z,100.00
2023-08-27T05:59:34.254Z,100.00
2023-08-27T06:02:09.627Z,100.00
2023-08-27T06:04:43.065Z,100.00
2023-08-27T06:07:16.102Z,100.00
2023-08-27T06:09:49.358Z,100.00
2023-08-27T06:12:22.510Z,100.00
2023-08-27T06:14:55.996Z,100.00
2023-08-27T06:17:29.215Z,100.00
2023-08-27T06:20:04.346Z,100.00
2023-08-27T06:22:37.583Z,100.00
2023-08-27T06:25:11.827Z,100.00
2023-08-27T06:27:47.163Z,100.00
2023-08-27T06:30:24.112Z,100.00
2023-08-27T06:33:00.199Z,100.00
2023-08-27T06:35:36.704Z,100.00
2023-08-27T06:38:13.804Z,100.00
2023-08-27T06:40:48.688Z,100.00
2023-08-27T06:43:24.093Z,100.00
2023-08-27T06:45:57.213Z,100.00
2023-08-27T06:48:30.286Z,100.00
2023-08-27T06:51:03.814Z,100.00
2023-08-27T06:53:38.881Z,100.00
2023-08-27T06:56:12.194Z,100.00
2023-08-27T06:58:45.706Z,100.00
2023-08-27T07:01:19.876Z,100.00
2023-08-27T07:03:53.644Z,100.00
2023-08-27T07:06:27.080Z,100.00
2023-08-27T07:09:04.664Z,100.00
2023-08-27T07:11:38.156Z,100.00
2023-08-27T07:14:11.463Z,100.00
2023-08-27T07:16:45.413Z,100.00
2023-08-27T07:19:35.866Z,100.00
2023-08-27T07:26:03.823Z,100.00
2023-08-27T07:29:09.412Z,100.00
2023-08-27T07:35:23.383Z,99.99
2023-08-27T07:37:57.565Z,100.00
2023-08-27T07:40:36.072Z,98.97
2023-08-27T07:43:09.977Z,98.75
2023-08-27T07:45:46.672Z,97.93
2023-08-27T07:48:36.131Z,97.34
2023-08-27T07:51:18.103Z,94.99
2023-08-27T07:54:04.650Z,92.64
2023-08-27T07:56:45.477Z,91.40
2023-08-27T07:59:22.168Z,91.56
2023-08-27T08:02:08.564Z,91.06
2023-08-27T08:04:44.159Z,91.21
2023-08-27T08:07:23.240Z,90.95
2023-08-27T08:09:57.461Z,90.79
2023-08-27T08:12:32.649Z,90.44
2023-08-27T08:15:11.498Z,89.65
2023-08-27T08:18:30.457Z,89.31
2023-08-27T08:21:26.316Z,89.28
2023-08-27T08:24:07.519Z,90.09
2023-08-27T08:26:48.505Z,89.24
2023-08-27T08:29:29.423Z,88.27
2023-08-27T08:32:05.889Z,88.84
2023-08-27T08:34:45.124Z,89.01
2023-08-27T08:37:27.366Z,89.13
2023-08-27T08:40:13.204Z,88.53
2023-08-27T08:43:06.000Z,88.30
2023-08-27T08:45:47.911Z,88.21
2023-08-27T08:48:27.170Z,88.33
2023-08-27T08:51:02.588Z,88.65
2023-08-27T08:53:49.811Z,88.90
2023-08-27T08:56:25.690Z,88.80
2023-08-27T08:59:03.128Z,89.02
2023-08-27T09:01:36.281Z,89.21
2023-08-27T09:04:10.896Z,89.55
2023-08-27T09:06:45.992Z,89.62
2023-08-27T09:09:19.855Z,90.31
2023-08-27T09:11:59.517Z,90.70
2023-08-27T09:14:38.352Z,90.86
2023-08-27T09:17:14.801Z,90.60
2023-08-27T09:19:52.684Z,90.46
2023-08-27T09:22:25.875Z,90.46
2023-08-27T09:24:58.930Z,90.91
2023-08-27T09:27:34.615Z,91.25
2023-08-27T09:30:09.169Z,90.81
2023-08-27T09:32:42.609Z,91.61
2023-08-27T09:35:16.236Z,92.15
2023-08-27T09:37:49.939Z,93.16
2023-08-27T09:40:26.792Z,94.05
2023-08-27T09:43:08.632Z,94.77
2023-08-27T09:45:42.817Z,95.12
2023-08-27T09:48:27.657Z,95.54
2023-08-27T09:51:08.351Z,95.61
2023-08-27T09:53:41.845Z,96.52
2023-08-27T09:56:15.004Z,96.93
2023-08-27T09:58:48.312Z,97.56
2023-08-27T10:01:21.637Z,97.87
2023-08-27T10:03:55.491Z,98.43
2023-08-27T10:06:29.114Z,98.84
2023-08-27T10:09:04.504Z,99.22
2023-08-27T10:11:38.376Z,99.91
2023-08-27T10:14:11.614Z,100.00
2023-08-27T10:16:44.906Z,100.00
2023-08-27T10:19:21.040Z,100.00
2023-08-27T10:21:54.383Z,100.00
2023-08-27T10:24:28.028Z,100.00
2023-08-27T10:27:05.945Z,100.00
2023-08-27T10:29:39.540Z,100.00
2023-08-27T10:32:12.801Z,100.00
2023-08-27T10:34:48.874Z,100.00
2023-08-27T10:37:23.595Z,100.00
2023-08-27T10:39:57.353Z,100.00
2023-08-27T10:42:41.794Z,100.00
2023-08-27T10:49:28.765Z,100.00
2023-08-27T10:56:46.847Z,100.00
2023-08-27T10:59:46.170Z,100.00
2023-08-27T11:02:20.307Z,100.00
2023-08-27T11:04:55.977Z,100.00
2023-08-27T11:07:29.257Z,100.00
2023-08-27T11:10:08.127Z,100.00
2023-08-27T11:12:41.623Z,100.00
2023-08-27T11:15:18.310Z,100.00
2023-08-27T11:17:51.975Z,100.00
2023-08-27T11:20:27.803Z,100.00
2023-08-27T11:23:04.802Z,100.00
2023-08-27T11:26:13.912Z,100.00
2023-08-27T11:28:56.745Z,100.00
2023-08-27T11:32:06.357Z,100.00
2023-08-27T11:57:36.939Z,99.81
2023-08-27T12:00:35.469Z,99.56
2023-08-27T12:03:15.904Z,98.45
2023-08-27T12:05:57.030Z,98.32
2023-08-27T12:12:40.544Z,98.73
2023-08-27T12:15:14.498Z,98.92
2023-08-27T12:17:49.670Z,98.93
2023-08-27T12:20:37.483Z,99.44
2023-08-27T12:23:17.212Z,98.74
2023-08-27T12:25:57.041Z,98.86
2023-08-27T12:28:40.194Z,99.50
2023-08-27T12:31:33.827Z,99.59
2023-08-27T12:34:20.805Z,100.00
2023-08-27T12:36:55.429Z,100.00
2023-08-27T12:39:40.769Z,100.00
2023-08-27T12:42:18.204Z,100.00
2023-08-27T12:45:02.080Z,100.00
2023-08-27T12:47:38.193Z,100.00
2023-08-27T12:50:18.388Z,100.00
2023-08-27T12:53:44.797Z,100.00
2023-08-27T12:56:24.608Z,100.00
2023-08-27T12:59:00.520Z,100.00
2023-08-27T13:01:42.558Z,100.00
2023-08-27T13:04:34.490Z,100.00
2023-08-27T13:07:12.471Z,100.00
2023-08-27T13:09:49.195Z,100.00
2023-08-27T13:12:23.906Z,100.00
2023-08-27T13:14:59.428Z,100.00
2023-08-27T13:17:35.915Z,100.00
2023-08-27T13:20:18.820Z,100.00
2023-08-27T13:22:54.018Z,100.00
2023-08-27T13:25:30.909Z,100.00
2023-08-27T13:28:08.576Z,100.00
2023-08-27T13:37:26.349Z,100.00
2023-08-27T13:40:14.594Z,100.00
2023-08-27T13:42:57.376Z,100.00
2023-08-27T13:45:43.164Z,100.00
2023-08-27T13:49:24.953Z,100.00
2023-08-27T13:52:27.302Z,100.00
2023-08-27T13:55:14.513Z,100.00
2023-08-27T13:57:55.486Z,100.00
2023-08-27T14:00:36.974Z,100.00
2023-08-27T14:03:16.763Z,100.00
2023-08-27T14:05:54.916Z,100.00
2023-08-27T14:08:37.564Z,100.00
2023-08-27T14:11:17.198Z,100.00
2023-08-27T14:13:58.358Z,100.00
2023-08-27T14:16:38.803Z,100.00
2023-08-27T14:19:21.307Z,100.00
2023-08-27T14:22:00.743Z,100.00
